createdAt,value
2019-03-06T00:00:22.523Z,99.99
2019-03-06T00:01:22.531Z,99.99
2019-03-06T00:02:22.543Z,99.99
2019-03-06T00:03:22.529Z,99.99
2019-03-06T00:04:22.590Z,99.99
2019-03-06T00:05:22.598Z,99.99
2019-03-06T00:06:22.592Z,99.99
2019-03-06T00:07:22.591Z,99.99
2019-03-06T00:08:22.589Z,99.99
2019-03-06T00:09:22.599Z,99.99
2019-03-06T00:10:22.595Z,99.99
2019-03-06T00:11:22.593Z,99.99
2019-03-06T00:12:22.598Z,99.99
2019-03-06T00:13:22.599Z,99.99
2019-03-06T00:14:22.614Z,99.99
2019-03-06T00:15:22.622Z,99.99
2019-03-06T00:16:22.632Z,99.99
2019-03-06T00:17:22.642Z,99.99
2019-03-06T00:18:22.656Z,99.99
2019-03-06T00:19:22.666Z,99.99
2019-03-06T00:20:22.675Z,99.99
2019-03-06T00:21:22.686Z,99.99
2019-03-06T00:22:22.697Z,99.99
2019-03-06T00:23:22.707Z,99.99
2019-03-06T00:24:22.718Z,99.99
2019-03-06T00:25:22.751Z,99.99
2019-03-06T00:26:22.744Z,99.99
2019-03-06T00:27:22.753Z,99.99
2019-03-06T00:28:22.763Z,99.99
2019-03-06T00:29:22.774Z,99.99
2019-03-06T00:30:22.785Z,99.99
2019-03-06T00:31:22.797Z,99.99
2019-03-06T00:32:22.809Z,99.99
2019-03-06T00:33:22.820Z,99.99
2019-03-06T00:34:22.828Z,99.99
2019-03-06T00:35:22.844Z,99.99
2019-03-06T00:36:22.850Z,99.99
2019-03-06T00:37:22.863Z,99.99
2019-03-06T00:38:22.876Z,99.99
2019-03-06T00:39:22.885Z,99.99
2019-03-06T00:40:22.893Z,99.99
2019-03-06T00:41:22.906Z,99.99
2019-03-06T00:42:22.917Z,99.99
2019-03-06T00:43:22.927Z,99.99
2019-03-06T00:44:22.942Z,99.99
2019-03-06T00:45:22.953Z,99.99
2019-03-06T00:46:22.958Z,99.99
2019-03-06T00:47:22.974Z,99.99
2019-03-06T00:48:22.985Z,99.99
2019-03-06T00:49:22.995Z,99.99
2019-03-06T00:50:23.014Z,99.99
2019-03-06T00:51:23.017Z,99.99
2019-03-06T00:52:23.027Z,99.99
2019-03-06T00:53:23.038Z,99.99
2019-03-06T00:54:23.049Z,99.99
2019-03-06T00:55:23.071Z,99.99
2019-03-06T00:56:23.075Z,99.99
2019-03-06T00:57:23.086Z,99.99
2019-03-06T00:58:24.998Z,99.99
2019-03-06T00:59:23.108Z,99.99
2019-03-06T01:00:23.117Z,99.99
2019-03-06T01:01:23.128Z,99.99
2019-03-06T01:02:23.139Z,99.99
2019-03-06T01:03:23.151Z,99.99
2019-03-06T01:04:23.162Z,99.99
2019-03-06T01:05:23.174Z,99.99
2019-03-06T01:06:23.185Z,99.99
2019-03-06T01:07:23.196Z,99.99
2019-03-06T01:08:23.208Z,99.99
2019-03-06T01:09:23.222Z,99.99
2019-03-06T01:10:23.230Z,99.99
2019-03-06T01:11:23.243Z,99.99
2019-03-06T01:12:23.252Z,99.99
2019-03-06T01:13:23.264Z,99.99
2019-03-06T01:14:23.276Z,99.99
2019-03-06T01:15:23.287Z,99.99
2019-03-06T01:16:23.297Z,99.99
2019-03-06T01:17:23.309Z,99.99
2019-03-06T01:18:23.320Z,99.99
2019-03-06T01:19:23.330Z,99.99
2019-03-06T01:20:23.340Z,99.99
2019-03-06T01:21:23.349Z,99.99
2019-03-06T01:22:23.365Z,99.99
2019-03-06T01:23:23.375Z,99.99
2019-03-06T01:24:23.388Z,99.99
2019-03-06T01:25:23.395Z,99.99
2019-03-06T01:26:23.407Z,99.99
2019-03-06T01:27:23.419Z,99.99
2019-03-06T01:28:23.430Z,99.99
2019-03-06T01:29:23.440Z,99.99
2019-03-06T01:30:23.455Z,99.99
2019-03-06T01:31:23.466Z,99.99
2019-03-06T01:32:23.475Z,99.99
2019-03-06T01:33:23.485Z,99.99
2019-03-06T01:34:23.504Z,99.99
2019-03-06T01:35:23.509Z,99.99
2019-03-06T01:36:23.520Z,99.99
2019-03-06T01:37:23.530Z,99.99
2019-03-06T01:38:23.542Z,99.99
2019-03-06T01:39:23.553Z,99.99
2019-03-06T01:40:23.564Z,99.99
2019-03-06T01:41:23.574Z,99.99
2019-03-06T01:42:23.586Z,99.99
2019-03-06T01:43:23.599Z,99.99
2019-03-06T01:44:23.609Z,99.99
2019-03-06T01:45:23.620Z,99.99
2019-03-06T01:46:23.630Z,99.99
2019-03-06T01:47:23.641Z,99.99
2019-03-06T01:48:23.654Z,99.99
2019-03-06T01:49:23.665Z,99.99
2019-03-06T01:50:23.676Z,99.99
2019-03-06T01:51:23.687Z,99.99
2019-03-06T01:52:23.700Z,99.99
2019-03-06T01:53:23.708Z,99.99
2019-03-06T01:54:23.717Z,99.99
2019-03-06T01:55:23.731Z,99.99
2019-03-06T01:56:23.747Z,99.99
2019-03-06T01:57:23.751Z,99.99
2019-03-06T01:58:23.761Z,99.99
2019-03-06T01:59:23.776Z,99.99
2019-03-06T02:00:23.786Z,99.99
2019-03-06T02:01:23.800Z,99.99
2019-03-06T02:02:23.808Z,99.99
2019-03-06T02:03:23.819Z,99.99
2019-03-06T02:04:23.832Z,99.99
2019-03-06T02:05:23.840Z,99.99
2019-03-06T02:06:23.850Z,99.99
2019-03-06T02:07:23.861Z,99.99
2019-03-06T02:08:23.878Z,99.99
2019-03-06T02:09:23.882Z,99.99
2019-03-06T02:10:23.895Z,99.99
2019-03-06T02:11:23.908Z,99.99
2019-03-06T02:12:23.920Z,99.99
2019-03-06T02:13:23.938Z,99.99
2019-03-06T02:14:23.939Z,99.99
2019-03-06T02:15:23.950Z,99.99
2019-03-06T02:16:23.960Z,99.99
2019-03-06T02:17:23.971Z,99.99
2019-03-06T02:18:23.983Z,99.99
2019-03-06T02:19:23.994Z,99.99
2019-03-06T02:20:24.004Z,99.99
2019-03-06T02:21:24.016Z,99.99
2019-03-06T02:22:24.024Z,99.99
2019-03-06T02:23:24.034Z,99.99
2019-03-06T02:24:24.047Z,99.99
2019-03-06T02:25:24.064Z,99.99
2019-03-06T02:26:24.071Z,99.99
2019-03-06T02:27:24.079Z,99.99
2019-03-06T02:28:24.092Z,99.99
2019-03-06T02:29:24.100Z,99.99
2019-03-06T02:30:24.111Z,99.99
2019-03-06T02:31:24.123Z,99.99
2019-03-06T02:32:24.134Z,99.99
2019-03-06T02:33:24.206Z,99.99
2019-03-06T02:34:24.157Z,99.99
2019-03-06T02:35:24.171Z,99.99
2019-03-06T02:36:24.178Z,99.99
2019-03-06T02:37:24.190Z,99.99
2019-03-06T02:38:24.200Z,99.99
2019-03-06T02:39:24.214Z,99.99
2019-03-06T02:40:24.222Z,99.99
2019-03-06T02:41:24.238Z,99.99
2019-03-06T02:42:24.262Z,99.99
2019-03-06T02:43:24.335Z,99.99
2019-03-06T02:44:24.328Z,99.99
2019-03-06T02:45:24.331Z,99.99
2019-03-06T02:46:24.322Z,99.99
2019-03-06T02:47:24.324Z,99.99
2019-03-06T02:48:24.387Z,99.99
2019-03-06T02:49:24.394Z,99.99
2019-03-06T02:50:24.387Z,99.99
2019-03-06T02:51:24.435Z,99.99
2019-03-06T02:52:24.386Z,99.99
2019-03-06T02:53:24.387Z,99.99
2019-03-06T02:54:24.381Z,99.99
2019-03-06T02:55:24.383Z,99.99
2019-03-06T02:56:24.391Z,99.99
2019-03-06T02:57:24.403Z,99.99
2019-03-06T02:58:24.412Z,99.99
2019-03-06T02:59:24.423Z,99.99
2019-03-06T03:00:24.436Z,99.99
2019-03-06T03:01:24.447Z,99.99
2019-03-06T03:02:24.502Z,99.99
2019-03-06T03:03:24.466Z,99.99
2019-03-06T03:04:24.478Z,99.99
2019-03-06T03:05:24.487Z,99.99
2019-03-06T03:06:24.500Z,99.99
2019-03-06T03:07:24.516Z,99.99
2019-03-06T03:08:24.521Z,99.99
2019-03-06T03:09:24.528Z,99.99
2019-03-06T03:10:24.546Z,99.99
2019-03-06T03:11:24.552Z,99.99
2019-03-06T03:12:24.570Z,99.99
2019-03-06T03:13:24.571Z,99.99
2019-03-06T03:14:24.592Z,99.99
2019-03-06T03:15:24.594Z,99.99
2019-03-06T03:16:24.602Z,99.99
2019-03-06T03:17:24.615Z,99.99
2019-03-06T03:18:24.626Z,99.99
2019-03-06T03:19:24.636Z,99.99
2019-03-06T03:20:24.650Z,99.99
2019-03-06T03:21:26.858Z,99.99
2019-03-06T03:22:24.667Z,99.99
2019-03-06T03:23:24.679Z,99.99
2019-03-06T03:24:24.690Z,99.99
2019-03-06T03:25:24.705Z,99.99
2019-03-06T03:26:24.705Z,99.99
2019-03-06T03:27:24.718Z,99.99
2019-03-06T03:28:24.735Z,99.99
2019-03-06T03:29:24.741Z,99.99
2019-03-06T03:30:24.757Z,99.99
2019-03-06T03:31:24.763Z,99.99
2019-03-06T03:32:24.773Z,99.99
2019-03-06T03:33:24.783Z,99.99
2019-03-06T03:34:24.825Z,99.99
2019-03-06T03:35:24.809Z,99.99
2019-03-06T03:36:24.815Z,99.99
2019-03-06T03:37:24.827Z,99.99
2019-03-06T03:38:24.834Z,99.99
2019-03-06T03:39:24.849Z,99.99
2019-03-06T03:40:24.859Z,99.99
2019-03-06T03:41:24.870Z,99.99
2019-03-06T03:42:24.875Z,99.99
2019-03-06T03:43:24.889Z,99.99
2019-03-06T03:44:24.901Z,99.99
2019-03-06T03:45:24.909Z,99.99
2019-03-06T03:46:24.920Z,99.99
2019-03-06T03:47:24.932Z,99.99
2019-03-06T03:48:24.941Z,99.99
2019-03-06T03:49:24.949Z,99.99
2019-03-06T03:50:24.961Z,99.99
2019-03-06T03:51:24.972Z,99.99
2019-03-06T03:52:24.983Z,99.99
2019-03-06T03:53:24.992Z,99.99
2019-03-06T03:54:25.004Z,99.99
2019-03-06T03:55:25.016Z,99.99
2019-03-06T03:56:25.024Z,99.99
2019-03-06T03:57:25.035Z,99.99
2019-03-06T03:58:25.045Z,99.99
2019-03-06T03:59:25.096Z,99.99
2019-03-06T04:00:25.073Z,99.99
2019-03-06T04:01:25.075Z,99.99
2019-03-06T04:02:25.087Z,99.99
2019-03-06T04:03:25.104Z,99.99
2019-03-06T04:04:25.111Z,99.99
2019-03-06T04:05:25.123Z,99.99
2019-03-06T04:06:25.133Z,99.99
2019-03-06T04:07:25.141Z,99.99
2019-03-06T04:08:25.167Z,99.99
2019-03-06T04:09:25.181Z,99.99
2019-03-06T04:10:25.170Z,99.99
2019-03-06T04:11:25.184Z,99.99
2019-03-06T04:12:25.192Z,99.99
2019-03-06T04:13:25.203Z,99.99
2019-03-06T04:14:25.214Z,99.99
2019-03-06T04:15:25.225Z,99.99
2019-03-06T04:16:25.238Z,99.99
2019-03-06T04:17:25.247Z,99.99
2019-03-06T04:18:25.255Z,99.99
2019-03-06T04:19:25.288Z,99.99
2019-03-06T04:20:25.281Z,99.99
2019-03-06T04:21:25.285Z,99.99
2019-03-06T04:22:25.298Z,99.99
2019-03-06T04:23:25.308Z,99.99
2019-03-06T04:24:25.319Z,99.99
2019-03-06T04:25:25.327Z,99.99
2019-03-06T04:26:25.341Z,99.99
2019-03-06T04:27:25.354Z,99.99
2019-03-06T04:28:27.841Z,99.99
2019-03-06T04:29:25.369Z,99.99
2019-03-06T04:30:25.380Z,99.99
2019-03-06T04:31:25.392Z,99.99
2019-03-06T04:32:25.402Z,99.99
2019-03-06T04:33:25.411Z,99.99
2019-03-06T04:34:25.428Z,99.99
2019-03-06T04:35:25.432Z,99.99
2019-03-06T04:36:25.442Z,99.99
2019-03-06T04:37:25.451Z,99.99
2019-03-06T04:38:25.465Z,99.99
2019-03-06T04:39:25.476Z,99.99
2019-03-06T04:40:25.485Z,99.99
2019-03-06T04:41:25.496Z,99.99
2019-03-06T04:42:25.504Z,99.99
2019-03-06T04:43:25.514Z,99.99
2019-03-06T04:44:25.525Z,99.99
2019-03-06T04:45:25.534Z,99.99
2019-03-06T04:46:25.545Z,99.99
2019-03-06T04:47:25.556Z,99.99
2019-03-06T04:48:25.567Z,99.99
2019-03-06T04:49:25.574Z,99.99
2019-03-06T04:50:25.586Z,99.99
2019-03-06T04:51:25.599Z,99.99
2019-03-06T04:52:25.605Z,99.99
2019-03-06T04:53:25.622Z,99.99
2019-03-06T04:54:25.632Z,99.99
2019-03-06T04:55:25.637Z,99.99
2019-03-06T04:56:25.648Z,99.99
2019-03-06T04:57:25.659Z,99.99
2019-03-06T04:58:26.286Z,99.99
2019-03-06T04:59:25.681Z,99.99
2019-03-06T05:00:25.689Z,99.99
2019-03-06T05:01:25.699Z,99.99
2019-03-06T05:02:25.709Z,99.99
2019-03-06T05:03:25.721Z,99.99
2019-03-06T05:04:25.733Z,99.99
2019-03-06T05:05:25.740Z,99.99
2019-03-06T05:06:25.753Z,99.99
2019-03-06T05:07:25.760Z,99.99
2019-03-06T05:08:25.770Z,99.99
2019-03-06T05:09:25.781Z,99.99
2019-03-06T05:10:25.790Z,99.99
2019-03-06T05:11:25.800Z,99.99
2019-03-06T05:12:25.815Z,99.99
2019-03-06T05:13:25.822Z,99.99
2019-03-06T05:14:25.834Z,99.99
2019-03-06T05:15:25.843Z,99.99
2019-03-06T05:16:25.855Z,99.99
2019-03-06T05:17:25.864Z,99.99
2019-03-06T05:18:25.873Z,99.99
2019-03-06T05:19:25.883Z,99.99
2019-03-06T05:20:25.892Z,99.99
2019-03-06T05:21:25.904Z,99.99
2019-03-06T05:22:25.914Z,99.99
2019-03-06T05:23:25.929Z,99.99
2019-03-06T05:24:25.934Z,99.99
2019-03-06T05:25:25.946Z,99.99
2019-03-06T05:26:25.957Z,99.99
2019-03-06T05:27:25.968Z,99.99
2019-03-06T05:28:25.976Z,99.99
2019-03-06T05:29:25.984Z,99.99
2019-03-06T05:30:25.994Z,99.99
2019-03-06T05:31:26.006Z,99.99
2019-03-06T05:32:26.017Z,99.99
2019-03-06T05:33:26.033Z,99.99
2019-03-06T05:34:26.120Z,99.99
2019-03-06T05:35:26.106Z,99.99
2019-03-06T05:36:26.123Z,99.99
2019-03-06T05:37:26.122Z,99.99
2019-03-06T05:38:26.109Z,99.99
2019-03-06T05:39:26.115Z,99.99
2019-03-06T05:40:26.135Z,99.99
2019-03-06T05:41:26.178Z,99.99
2019-03-06T05:42:26.167Z,99.99
2019-03-06T05:43:26.173Z,99.99
2019-03-06T05:44:26.176Z,99.99
2019-03-06T05:45:26.185Z,99.99
2019-03-06T05:46:26.178Z,99.99
2019-03-06T05:47:26.178Z,99.99
2019-03-06T05:48:26.181Z,99.99
2019-03-06T05:49:26.187Z,99.99
2019-03-06T05:50:26.205Z,99.99
2019-03-06T05:51:26.211Z,99.99
2019-03-06T05:52:26.220Z,99.99
2019-03-06T05:53:26.228Z,99.99
2019-03-06T05:54:26.238Z,99.99
2019-03-06T05:55:26.251Z,99.99
2019-03-06T05:56:26.258Z,99.99
2019-03-06T05:57:26.267Z,99.99
2019-03-06T05:58:26.279Z,99.99
2019-03-06T05:59:26.291Z,99.99
2019-03-06T06:00:26.300Z,99.99
2019-03-06T06:01:26.311Z,99.99
2019-03-06T06:02:27.947Z,99.99
2019-03-06T06:03:26.332Z,99.99
2019-03-06T06:04:26.339Z,99.99
2019-03-06T06:05:26.352Z,99.99
2019-03-06T06:06:26.360Z,99.99
2019-03-06T06:07:26.372Z,99.99
2019-03-06T06:08:26.382Z,99.99
2019-03-06T06:09:26.390Z,99.99
2019-03-06T06:10:26.398Z,99.99
2019-03-06T06:11:26.409Z,99.99
2019-03-06T06:12:26.420Z,99.99
2019-03-06T06:13:26.432Z,99.99
2019-03-06T06:14:26.441Z,99.99
2019-03-06T06:15:26.450Z,99.99
2019-03-06T06:16:26.460Z,99.99
2019-03-06T06:17:26.470Z,99.99
2019-03-06T06:18:26.482Z,99.99
2019-03-06T06:19:26.493Z,99.99
2019-03-06T06:20:26.503Z,99.99
2019-03-06T06:21:26.513Z,99.99
2019-03-06T06:22:26.527Z,99.99
2019-03-06T06:23:26.535Z,99.99
2019-03-06T06:24:26.542Z,99.99
2019-03-06T06:25:26.555Z,99.99
2019-03-06T06:26:26.565Z,99.99
2019-03-06T06:27:26.579Z,99.99
2019-03-06T06:28:26.587Z,99.99
2019-03-06T06:29:26.598Z,99.99
2019-03-06T06:30:26.606Z,99.99
2019-03-06T06:31:26.616Z,99.99
2019-03-06T06:32:26.626Z,99.99
2019-03-06T06:33:26.638Z,99.99
2019-03-06T06:34:26.648Z,99.99
2019-03-06T06:35:26.659Z,99.99
2019-03-06T06:36:26.670Z,99.99
2019-03-06T06:37:26.681Z,99.99
2019-03-06T06:38:26.691Z,99.99
2019-03-06T06:39:26.700Z,99.99
2019-03-06T06:40:26.712Z,99.99
2019-03-06T06:41:26.720Z,99.99
2019-03-06T06:42:26.734Z,99.99
2019-03-06T06:43:26.744Z,99.99
2019-03-06T06:44:26.756Z,99.99
2019-03-06T06:45:26.767Z,99.99
2019-03-06T06:46:26.778Z,99.99
2019-03-06T06:47:26.786Z,99.99
2019-03-06T06:48:26.803Z,99.99
2019-03-06T06:49:26.808Z,99.99
2019-03-06T06:50:26.819Z,99.99
2019-03-06T06:51:26.828Z,99.99
2019-03-06T06:52:26.840Z,99.99
2019-03-06T06:53:26.849Z,99.99
2019-03-06T06:54:26.861Z,99.99
2019-03-06T06:55:26.873Z,99.99
2019-03-06T06:56:26.883Z,99.99
2019-03-06T06:57:26.920Z,99.99
2019-03-06T06:58:31.290Z,99.99
2019-03-06T06:59:26.917Z,99.99
2019-03-06T07:00:26.933Z,99.99
2019-03-06T07:01:26.935Z,99.99
2019-03-06T07:02:26.946Z,99.99
2019-03-06T07:03:26.958Z,99.99
2019-03-06T07:04:26.970Z,99.99
2019-03-06T07:05:26.979Z,99.99
2019-03-06T07:06:26.991Z,99.99
2019-03-06T07:07:27.002Z,99.99
2019-03-06T07:08:27.015Z,99.99
2019-03-06T07:09:27.024Z,99.99
2019-03-06T07:10:27.036Z,99.99
2019-03-06T07:11:27.045Z,99.99
2019-03-06T07:12:27.058Z,99.99
2019-03-06T07:13:27.070Z,99.99
2019-03-06T07:14:27.076Z,99.99
2019-03-06T07:15:27.091Z,99.99
2019-03-06T07:16:27.103Z,99.99
2019-03-06T07:17:27.113Z,99.99
2019-03-06T07:18:27.125Z,99.99
2019-03-06T07:19:27.137Z,99.99
2019-03-06T07:20:27.149Z,99.99
2019-03-06T07:21:27.160Z,99.99
2019-03-06T07:22:27.170Z,99.99
2019-03-06T07:23:27.180Z,99.99
2019-03-06T07:24:27.192Z,99.99
2019-03-06T07:25:27.203Z,99.99
2019-03-06T07:26:27.216Z,99.99
2019-03-06T07:27:27.226Z,99.99
2019-03-06T07:28:27.239Z,99.99
2019-03-06T07:29:27.250Z,99.99
2019-03-06T07:30:27.260Z,99.99
2019-03-06T07:31:27.272Z,99.99
2019-03-06T07:32:27.285Z,99.99
2019-03-06T07:33:27.294Z,99.99
2019-03-06T07:34:27.312Z,99.99
2019-03-06T07:35:27.320Z,99.99
2019-03-06T07:36:27.331Z,99.99
2019-03-06T07:37:28.838Z,99.99
2019-03-06T07:38:27.352Z,99.99
2019-03-06T07:39:27.374Z,99.99
2019-03-06T07:40:27.376Z,99.99
2019-03-06T07:41:27.388Z,99.99
2019-03-06T07:42:27.399Z,99.99
2019-03-06T07:43:27.415Z,99.99
2019-03-06T07:44:30.468Z,99.99
2019-03-06T07:45:27.435Z,99.99
2019-03-06T07:46:27.447Z,99.99
2019-03-06T07:47:27.459Z,99.99
2019-03-06T07:48:27.471Z,99.99
2019-03-06T07:49:27.484Z,99.99
2019-03-06T07:50:27.494Z,99.99
2019-03-06T07:51:27.507Z,99.99
2019-03-06T07:52:27.520Z,99.99
2019-03-06T07:53:27.530Z,99.99
2019-03-06T07:54:27.544Z,99.99
2019-03-06T07:55:27.555Z,99.99
2019-03-06T07:56:27.570Z,99.99
2019-03-06T07:57:27.579Z,99.99
2019-03-06T07:58:27.595Z,99.99
2019-03-06T07:59:27.606Z,99.99
2019-03-06T08:00:27.623Z,99.99
2019-03-06T08:01:27.629Z,99.99
2019-03-06T08:02:27.641Z,99.99
2019-03-06T08:03:27.655Z,99.99
2019-03-06T08:04:27.664Z,99.99
2019-03-06T08:05:27.681Z,99.99
2019-03-06T08:06:27.692Z,99.99
2019-03-06T08:07:27.706Z,99.99
2019-03-06T08:08:27.717Z,99.99
2019-03-06T08:09:27.733Z,99.99
2019-03-06T08:10:27.740Z,99.99
2019-03-06T08:11:27.753Z,99.99
2019-03-06T08:12:27.765Z,99.99
2019-03-06T08:13:27.777Z,99.99
2019-03-06T08:14:27.791Z,99.99
2019-03-06T08:15:27.805Z,99.99
2019-03-06T08:16:27.814Z,99.99
2019-03-06T08:17:27.833Z,99.99
2019-03-06T08:18:27.919Z,99.99
2019-03-06T08:19:27.893Z,99.99
2019-03-06T08:20:27.915Z,99.99
2019-03-06T08:21:27.921Z,99.99
2019-03-06T08:22:27.974Z,99.99
2019-03-06T08:23:27.975Z,99.99
2019-03-06T08:24:27.971Z,99.99
2019-03-06T08:25:27.975Z,99.99
2019-03-06T08:26:27.976Z,99.99
2019-03-06T08:27:27.977Z,99.99
2019-03-06T08:28:27.981Z,99.99
2019-03-06T08:29:27.983Z,99.99
2019-03-06T08:30:27.995Z,99.99
2019-03-06T08:31:28.009Z,99.99
2019-03-06T08:32:28.021Z,99.99
2019-03-06T08:33:28.032Z,99.99
2019-03-06T08:34:28.047Z,99.99
2019-03-06T08:35:28.060Z,99.99
2019-03-06T08:36:28.074Z,99.99
2019-03-06T08:37:28.087Z,99.99
2019-03-06T08:38:28.099Z,99.99
2019-03-06T08:39:28.114Z,99.99
2019-03-06T08:40:28.127Z,99.99
2019-03-06T08:41:28.140Z,99.99
2019-03-06T08:42:28.154Z,99.99
2019-03-06T08:43:28.168Z,99.99
2019-03-06T08:44:28.180Z,99.99
2019-03-06T08:45:28.195Z,99.99
2019-03-06T08:46:28.210Z,99.99
2019-03-06T08:47:28.226Z,99.99
2019-03-06T08:48:28.246Z,99.99
2019-03-06T08:49:28.250Z,99.99
2019-03-06T08:50:28.269Z,99.99
2019-03-06T08:51:28.283Z,99.99
2019-03-06T08:52:28.296Z,99.99
2019-03-06T08:53:28.313Z,99.99
2019-03-06T08:54:28.325Z,99.99
2019-03-06T08:55:28.340Z,99.99
2019-03-06T08:56:28.356Z,99.99
2019-03-06T08:57:28.369Z,99.99
2019-03-06T08:58:28.385Z,99.99
2019-03-06T08:59:28.400Z,99.99
2019-03-06T09:00:30.402Z,99.99
2019-03-06T09:01:28.428Z,99.99
2019-03-06T09:02:28.444Z,99.99
2019-03-06T09:03:28.459Z,99.99
2019-03-06T09:04:28.475Z,99.99
2019-03-06T09:05:28.489Z,99.99
2019-03-06T09:06:28.506Z,99.99
2019-03-06T09:07:28.522Z,99.99
2019-03-06T09:08:28.536Z,99.99
2019-03-06T09:09:28.549Z,99.99
2019-03-06T09:10:28.566Z,99.99
2019-03-06T09:11:28.585Z,99.99
2019-03-06T09:12:28.597Z,99.99
2019-03-06T09:13:28.611Z,99.99
2019-03-06T09:14:28.628Z,99.99
2019-03-06T09:15:28.643Z,99.99
2019-03-06T09:16:28.657Z,99.99
2019-03-06T09:17:28.673Z,99.99
2019-03-06T09:18:28.689Z,99.99
2019-03-06T09:19:28.705Z,99.99
2019-03-06T09:20:35.952Z,99.99
2019-03-06T09:21:28.734Z,99.99
2019-03-06T09:22:28.753Z,99.99
2019-03-06T09:23:28.766Z,99.99
2019-03-06T09:24:28.781Z,99.99
2019-03-06T09:25:28.795Z,99.99
2019-03-06T09:26:28.810Z,99.99
2019-03-06T09:27:28.825Z,99.99
2019-03-06T09:28:28.846Z,99.99
2019-03-06T09:29:28.857Z,99.99
2019-03-06T09:30:28.874Z,99.99
2019-03-06T09:31:28.932Z,99.99
2019-03-06T09:32:28.910Z,99.99
2019-03-06T09:33:28.921Z,99.99
2019-03-06T09:34:28.938Z,99.99
2019-03-06T09:35:28.951Z,99.99
2019-03-06T09:36:28.969Z,99.99
2019-03-06T09:37:28.984Z,99.99
2019-03-06T09:38:28.999Z,99.99
2019-03-06T09:39:29.016Z,99.99
2019-03-06T09:40:29.034Z,99.99
2019-03-06T09:41:29.048Z,99.99
2019-03-06T09:42:29.068Z,99.99
2019-03-06T09:43:29.080Z,99.99
2019-03-06T09:44:29.100Z,99.99
2019-03-06T09:45:29.115Z,99.99
2019-03-06T09:46:29.131Z,99.99
2019-03-06T09:47:29.145Z,99.99
2019-03-06T09:48:29.161Z,99.99
2019-03-06T09:49:29.176Z,99.99
2019-03-06T09:50:29.195Z,99.99
2019-03-06T09:51:29.215Z,99.99
2019-03-06T09:52:29.231Z,99.99
2019-03-06T09:53:29.246Z,99.99
2019-03-06T09:54:29.262Z,99.99
2019-03-06T09:55:29.277Z,99.99
2019-03-06T09:56:29.296Z,99.99
2019-03-06T09:57:29.312Z,99.99
2019-03-06T09:58:29.329Z,99.99
2019-03-06T09:59:29.344Z,99.99
2019-03-06T10:00:29.362Z,99.99
2019-03-06T10:01:29.379Z,99.99
2019-03-06T10:02:29.398Z,99.99
2019-03-06T10:03:29.411Z,99.99
2019-03-06T10:04:29.450Z,99.99
2019-03-06T10:05:29.444Z,99.99
2019-03-06T10:06:29.465Z,99.99
2019-03-06T10:07:29.481Z,99.99
2019-03-06T10:08:29.496Z,99.99
2019-03-06T10:09:29.511Z,99.99
2019-03-06T10:10:29.532Z,99.99
2019-03-06T10:11:29.545Z,99.99
2019-03-06T10:12:29.564Z,99.99
2019-03-06T10:13:29.584Z,99.99
2019-03-06T10:14:29.600Z,99.99
2019-03-06T10:15:29.614Z,99.99
2019-03-06T10:16:29.633Z,99.99
2019-03-06T10:17:30.191Z,99.99
2019-03-06T10:18:29.666Z,99.99
2019-03-06T10:19:29.719Z,99.99
2019-03-06T10:20:29.760Z,99.99
2019-03-06T10:21:29.774Z,99.99
2019-03-06T10:22:29.761Z,99.99
2019-03-06T10:23:29.813Z,99.99
2019-03-06T10:24:29.832Z,99.99
2019-03-06T10:25:30.633Z,99.99
2019-03-06T10:26:29.836Z,99.99
2019-03-06T10:27:29.823Z,99.99
2019-03-06T10:28:29.835Z,99.99
2019-03-06T10:29:29.858Z,99.99
2019-03-06T10:30:29.870Z,99.99
2019-03-06T10:31:29.891Z,99.99
2019-03-06T11:06:30.502Z,99.99
2019-03-06T11:07:30.524Z,99.99
2019-03-06T11:08:30.543Z,99.99
2019-03-06T11:09:30.556Z,99.99
2019-03-06T11:10:30.576Z,99.99
2019-03-06T11:11:30.596Z,99.99
2019-03-06T11:12:30.612Z,99.99
2019-03-06T11:13:30.629Z,99.99
2019-03-06T11:14:30.650Z,99.99
2019-03-06T11:15:30.669Z,99.99
2019-03-06T11:16:32.278Z,99.99
2019-03-06T11:17:30.703Z,99.99
2019-03-06T11:18:30.722Z,99.99
2019-03-06T11:19:30.742Z,99.99
2019-03-06T11:20:30.759Z,99.99
2019-03-06T11:21:30.777Z,99.99
2019-03-06T11:22:30.797Z,99.99
2019-03-06T11:23:30.817Z,99.99
2019-03-06T11:24:30.835Z,99.99
2019-03-06T11:25:30.852Z,99.99
2019-03-06T11:26:30.870Z,99.99
2019-03-06T11:27:30.891Z,99.99
2019-03-06T11:28:30.911Z,99.99
2019-03-06T11:29:30.934Z,99.99
2019-03-06T11:30:30.947Z,99.99
2019-03-06T11:31:30.965Z,99.99
2019-03-06T11:32:30.985Z,99.99
2019-03-06T11:33:31.005Z,99.99
2019-03-06T11:34:31.025Z,99.99
2019-03-06T11:35:31.047Z,99.99
2019-03-06T11:36:31.062Z,99.99
2019-03-06T11:37:31.079Z,99.99
2019-03-06T11:38:31.098Z,99.99
2019-03-06T11:39:31.121Z,99.99
2019-03-06T11:40:31.136Z,99.99
2019-03-06T11:41:31.155Z,99.22
2019-03-06T11:42:31.215Z,99.13
2019-03-06T11:43:31.196Z,99.32
2019-03-06T11:44:31.216Z,99.32
2019-03-06T11:45:31.232Z,98.85
2019-03-06T11:46:31.252Z,98.36
2019-03-06T11:47:31.273Z,98.18
2019-03-06T11:48:31.290Z,98.85
2019-03-06T11:49:31.316Z,99.04
2019-03-06T11:50:40.322Z,97.03
2019-03-06T11:51:31.348Z,97.03
2019-03-06T11:52:34.835Z,98.46
2019-03-06T11:53:32.916Z,99.27
2019-03-06T11:54:31.406Z,99.99
2019-03-06T11:55:31.425Z,99.99
2019-03-06T11:56:31.447Z,99.99
2019-03-06T11:57:33.297Z,99.85
2019-03-06T11:58:31.486Z,99.95
2019-03-06T11:59:31.509Z,98.90
2019-03-06T12:00:31.527Z,99.18
2019-03-06T12:01:31.557Z,99.95
2019-03-06T12:02:31.637Z,98.99
2019-03-06T12:03:31.640Z,99.99
2019-03-06T12:04:31.639Z,98.47
2019-03-06T12:05:31.705Z,95.12
2019-03-06T12:06:31.708Z,95.84
2019-03-06T12:07:31.704Z,96.94
2019-03-06T12:08:31.704Z,97.42
2019-03-06T12:09:31.707Z,97.94
2019-03-06T12:10:31.723Z,97.66
2019-03-06T12:11:31.741Z,96.51
2019-03-06T12:12:31.762Z,97.46
2019-03-06T12:13:31.781Z,97.46
2019-03-06T12:14:31.801Z,98.51
2019-03-06T12:15:31.820Z,98.90
2019-03-06T12:16:31.848Z,99.85
2019-03-06T12:17:31.859Z,99.85
2019-03-06T12:18:31.879Z,99.85
2019-03-06T12:19:31.901Z,97.75
2019-03-06T12:20:31.919Z,97.17
2019-03-06T12:21:31.936Z,97.94
2019-03-06T12:22:31.957Z,99.37
2019-03-06T12:23:31.974Z,99.95
2019-03-06T12:24:31.996Z,98.32
2019-03-06T12:25:32.013Z,98.51
2019-03-06T12:26:32.036Z,98.32
2019-03-06T12:27:32.057Z,98.03
2019-03-06T12:28:32.072Z,97.94
2019-03-06T12:29:32.091Z,97.56
2019-03-06T12:30:32.109Z,97.46
2019-03-06T12:31:32.130Z,97.94
2019-03-06T12:32:32.150Z,98.61
2019-03-06T12:33:32.171Z,96.98
2019-03-06T12:34:32.187Z,96.51
2019-03-06T12:35:32.207Z,97.51
2019-03-06T12:36:32.227Z,97.89
2019-03-06T12:37:32.247Z,97.22
2019-03-06T12:38:32.267Z,98.47
2019-03-06T12:39:32.286Z,97.61
2019-03-06T12:40:32.308Z,97.89
2019-03-06T12:41:32.329Z,98.37
2019-03-06T12:42:32.346Z,97.89
2019-03-06T12:43:32.364Z,97.80
2019-03-06T12:44:32.388Z,97.13
2019-03-06T12:45:32.405Z,97.99
2019-03-06T12:46:32.424Z,97.61
2019-03-06T12:47:32.444Z,98.85
2019-03-06T12:48:32.463Z,99.90
2019-03-06T12:49:32.481Z,98.99
2019-03-06T12:50:32.502Z,97.27
2019-03-06T12:51:32.523Z,96.98
2019-03-06T12:52:32.542Z,95.84
2019-03-06T12:53:32.561Z,94.12
2019-03-06T12:54:32.581Z,96.03
2019-03-06T12:55:32.602Z,96.32
2019-03-06T12:56:32.625Z,95.17
2019-03-06T12:57:32.641Z,92.97
2019-03-06T12:58:32.661Z,95.46
2019-03-06T12:59:32.680Z,95.46
2019-03-06T13:00:32.700Z,94.51
2019-03-06T13:01:32.721Z,94.03
2019-03-06T13:02:32.740Z,95.46
2019-03-06T13:03:32.761Z,96.13
2019-03-06T13:04:32.782Z,93.93
2019-03-06T13:05:32.801Z,95.75
2019-03-06T13:06:32.823Z,97.08
2019-03-06T13:07:32.842Z,94.89
2019-03-06T13:08:32.863Z,94.22
2019-03-06T13:09:32.881Z,94.60
2019-03-06T13:10:32.902Z,95.32
2019-03-06T13:11:32.924Z,94.22
2019-03-06T13:12:32.942Z,93.17
2019-03-06T13:14:32.996Z,94.55
2019-03-06T13:15:33.006Z,95.03
2019-03-06T13:16:33.023Z,95.51
2019-03-06T13:17:33.044Z,95.03
2019-03-06T13:18:33.063Z,94.03
2019-03-06T13:19:33.092Z,94.17
2019-03-06T13:20:33.106Z,95.51
2019-03-06T13:21:33.126Z,96.94
2019-03-06T13:22:33.146Z,95.98
2019-03-06T13:23:33.165Z,95.12
2019-03-06T13:24:33.184Z,94.98
2019-03-06T13:25:33.201Z,93.46
2019-03-06T13:26:33.223Z,94.03
2019-03-06T13:27:33.243Z,93.55